Terminal Aerodrome Forecast
Issued by NWS Missoula, MT

Home | Current Version | Previous Version | Text Only | Print | Product List | Glossary On
Versions: 1 2 3 4 5 6 7 8 9 10 11 12 13
000
FTUS45 KMSO 040210 AAA
TAFBTM
TAF AMD
KBTM 040210Z 0402/0424 31011KT P6SM VCSH BKN100
     FM040400 23012G20KT P6SM -SHRA BKN060 BKN100
     FM040600 24007KT P6SM VCSH BKN100
     FM040800 28008KT P6SM -SHRA OVC090
     FM041200 VRB04KT P6SM BKN090
     FM042100 29009KT P6SM VCSH BKN090=

USA.gov is the U.S. government's official web portal to all federal, state and local government web resources and services.